Accueil
METAR-TAF:

METAR-TAF

Aéroports :

Forlì, Italie

Aérodrome de Forlì

latitude: 44-12N, longitude: 012-04E, altitude: 27 m

Observation

Le bulletin a été fait il y a 3 heures et 24 minutes, à 16:50 UTC
Vent 6 kt de ouest/nord-ouest
Température 3°C
Humidité 87%
Pression 1007 hPa
Visibilité: 4000 m
Nuages épars à une hauteur de 500 ft
Nuages fragmentés à une hauteur de 1000 ft
pluie faible, brume

METAR: LIPK 231650Z 30006KT 4000 -RA BR SCT005 BKN010 03/01 Q1007

Heure: 21:14 (20:14 UTC)


TAF: absent

Observations et prévisions météorologiques de plus de 4000 aéroports (messages METAR et TAF).

Les stations disponibles sont représentées par des disques jaunes et rouges sur la carte.

Passer la souris dessus pour voir le nom de la station.

Cliquer dessus pour voir les observations et prévisions météorologiques.

Pour changer de carte: cliquez sur les boutons verts avec une croix noire pour zoomer, sur le bouton vert avec un tiret pour effectuer un zoom arrière, ou sur les flèches vertes pour les cartes adjacentes.


METAR-TAF: